Owings, MD

3:00 PM EDT on June 02, 2015 (GMT -0400)
Washington | | Change Station
CLOSE
Current Station
Airport
Location: Washington,
Elevation: 13 ft
Nearby Weather Stations

Elev 13 ft 38.85 °N, 77.03 °W | Updated 8 minutes ago

Overcast
Overcast
64 °F
Feels Like 64 °F
N
14
Wind Variable Wind from NNE

Today
High -- | Low -- °F
--% Chance of Precip.
Yesterday
High -- | Low -- °F
Precip. -- in
5:43 AM 8:25 PM
Full, 100% visible
Pressure 30.09 in
Visibility 10.0 miles
Clouds Overcast 1200 ft
Dew Point 58 °F
Humidity 80%
Rainfall 0.49 in
Snow Depth Not available.
UV 3 out of 12
Pollen .60 out of 12
Air Quality Not available.
Flu Activity Sporadic
METAR KDCA 021852Z 03012KT 10SM OVC012 18/14 A3009 RMK AO2 DZE1759 SLP187 P0000 T01780144

More Conditions Fewer Conditions

Pressure 30.09 in
Visibility 10.0 miles
Clouds Overcast 1200 ft
Dew Point 58 °F
Humidity 80%
Rainfall 0.49 in
Snow Depth Not available.
UV 3 out of 12
Pollen .60 out of 12
Air Quality Not available.
Flu Activity Sporadic
METAR KDCA 021852Z 03012KT 10SM OVC012 18/14 A3009 RMK AO2 DZE1759 SLP187 P0000 T01780144

More Conditions Fewer Conditions

10-Day Weather Forecast

×

Almanac

Astronomy

Jun. 02, 2015 Rise Set
Actual Time
Civil Twilight
Nautical Twilight
Astronomical Twilight
Moon
Length of Visible Light
Length of Day
Tomorrow will be .
, % of the Moon is Illuminated

Today's Extremes

State Highs State Lows

Community

WunderPhotos

Upload Photos

1,826,007 photos uploaded!

WunderBlogs® & News

Nearby

Air Quality

  Air Quality AQ Index Pollutant
Not available.

Snow Depth

Station Depth Elevation

Earthquake Activity

City Distance Mag. Time & Date
Minimum magnitude displayed is 2.5.

Coastal Water Temperatures

Place Temperature

Stations

Nearby Weather Stations

Station Location Temp. Windchill Dew Point Humidity Wind Precip. Elev Updated Type